createdAt,value
2023-01-19T00:00:53.744Z,10.18
2023-01-19T00:03:20.727Z,11.20
2023-01-19T00:05:47.599Z,9.93
2023-01-19T00:08:17.575Z,10.85
2023-01-19T00:10:47.192Z,13.45
2023-01-19T00:13:15.358Z,10.63
2023-01-19T00:15:42.797Z,11.30
2023-01-19T00:18:10.907Z,10.70
2023-01-19T00:20:41.912Z,11.52
2023-01-19T00:23:08.838Z,12.98
2023-01-19T00:25:42.290Z,11.60
2023-01-19T00:28:13.082Z,10.63
2023-01-19T00:30:40.469Z,9.25
2023-01-19T00:33:07.157Z,11.23
2023-01-19T00:35:35.214Z,13.32
2023-01-19T00:38:02.740Z,11.95
2023-01-19T00:40:29.598Z,11.15
2023-01-19T00:42:56.277Z,11.27
2023-01-19T00:45:24.432Z,11.40
2023-01-19T00:47:57.153Z,12.38
2023-01-19T00:50:25.572Z,13.38
2023-01-19T00:52:53.709Z,12.82
2023-01-19T00:55:20.504Z,11.40
2023-01-19T00:57:47.674Z,12.43
2023-01-19T01:00:19.922Z,13.68
2023-01-19T01:02:47.984Z,13.43
2023-01-19T01:05:15.305Z,11.82
2023-01-19T01:07:42.877Z,12.90
2023-01-19T01:10:12.142Z,15.30
2023-01-19T01:12:39.301Z,14.43
2023-01-19T01:15:11.226Z,14.30
2023-01-19T01:17:38.293Z,13.48
2023-01-19T01:20:05.488Z,12.48
2023-01-19T01:22:32.281Z,14.60
2023-01-19T01:24:59.039Z,12.77
2023-01-19T01:27:25.765Z,13.73
2023-01-19T01:29:52.521Z,15.73
2023-01-19T01:32:19.193Z,13.43
2023-01-19T01:34:46.011Z,14.20
2023-01-19T01:37:12.737Z,14.98
2023-01-19T01:39:39.467Z,14.35
2023-01-19T01:42:16.040Z,16.67
2023-01-19T01:44:52.592Z,14.30
2023-01-19T01:47:42.857Z,16.85
2023-01-19T01:50:20.967Z,15.02
2023-01-19T01:53:07.709Z,16.20
2023-01-19T01:55:44.865Z,17.13
2023-01-19T01:58:12.546Z,14.07
2023-01-19T02:00:58.793Z,17.42
2023-01-19T02:03:26.429Z,15.90
2023-01-19T02:05:57.613Z,14.88
2023-01-19T02:09:05.194Z,18.15
2023-01-19T02:11:51.413Z,13.23
2023-01-19T02:14:19.101Z,16.23
2023-01-19T02:16:46.716Z,16.33
2023-01-19T02:19:19.361Z,16.70
2023-01-19T02:22:01.775Z,15.10
2023-01-19T02:24:29.360Z,19.13
2023-01-19T02:26:56.828Z,15.27
2023-01-19T02:29:26.025Z,16.05
2023-01-19T02:31:53.969Z,15.65
2023-01-19T02:34:21.616Z,18.00
2023-01-19T02:36:54.284Z,15.60
2023-01-19T02:39:27.968Z,17.27
2023-01-19T02:42:01.392Z,18.45
2023-01-19T02:44:30.363Z,16.63
2023-01-19T02:46:57.592Z,17.92
2023-01-19T02:49:28.643Z,15.53
2023-01-19T02:51:55.950Z,19.92
2023-01-19T02:54:41.053Z,19.85
2023-01-19T02:57:24.247Z,16.65
2023-01-19T03:00:02.831Z,18.92
2023-01-19T03:02:46.530Z,17.77
2023-01-19T03:05:21.968Z,17.83
2023-01-19T03:08:19.044Z,19.02
2023-01-19T03:10:51.741Z,20.13
2023-01-19T03:13:34.527Z,18.33
2023-01-19T03:16:01.340Z,17.97
2023-01-19T03:18:30.924Z,18.67
2023-01-19T03:21:00.591Z,19.35
2023-01-19T03:23:30.660Z,18.98
2023-01-19T03:25:59.663Z,20.10
2023-01-19T03:28:29.381Z,19.92
2023-01-19T03:31:05.325Z,21.30
2023-01-19T03:33:34.268Z,21.73
2023-01-19T03:36:10.458Z,22.35
2023-01-19T03:38:38.546Z,18.67
2023-01-19T03:41:10.867Z,21.13
2023-01-19T03:43:39.785Z,21.20
2023-01-19T03:46:08.295Z,19.77
2023-01-19T03:48:35.383Z,19.92
2023-01-19T03:51:08.466Z,22.50
2023-01-19T03:53:35.440Z,21.77
2023-01-19T03:56:02.440Z,20.77
2023-01-19T03:58:29.405Z,20.50
2023-01-19T04:00:56.213Z,20.48
2023-01-19T04:03:23.098Z,24.52
2023-01-19T04:05:49.834Z,22.50
2023-01-19T04:08:16.574Z,22.65
2023-01-19T04:10:43.307Z,22.33
2023-01-19T04:13:10.585Z,25.25
2023-01-19T04:15:37.370Z,24.83
2023-01-19T04:18:05.268Z,22.97
2023-01-19T04:20:32.062Z,24.75
2023-01-19T04:23:00.838Z,27.80
2023-01-19T04:25:28.865Z,24.00
2023-01-19T04:27:57.973Z,19.20
2023-01-19T04:30:25.088Z,22.60
2023-01-19T04:32:51.948Z,24.98
2023-01-19T04:35:19.442Z,26.05
2023-01-19T04:37:46.279Z,24.40
2023-01-19T04:40:13.094Z,24.17
2023-01-19T04:42:44.895Z,24.80
2023-01-19T04:45:14.466Z,25.02
2023-01-19T04:47:42.683Z,24.13
2023-01-19T04:50:10.941Z,27.00
2023-01-19T04:52:37.824Z,26.80
2023-01-19T04:55:06.660Z,24.93
2023-01-19T04:57:33.579Z,26.50
2023-01-19T05:00:00.408Z,25.58
2023-01-19T05:02:27.683Z,24.88
2023-01-19T05:04:54.526Z,24.58
2023-01-19T05:07:21.326Z,24.33
2023-01-19T05:09:48.109Z,24.65
2023-01-19T05:12:15.138Z,23.30
2023-01-19T05:14:41.898Z,24.08
2023-01-19T05:17:08.753Z,24.70
2023-01-19T05:19:35.573Z,25.57
2023-01-19T05:22:04.218Z,24.33
2023-01-19T05:24:31.069Z,24.45
2023-01-19T05:26:58.929Z,26.00
2023-01-19T05:29:25.741Z,26.23
2023-01-19T05:31:52.455Z,24.03
2023-01-19T05:34:19.442Z,25.48
2023-01-19T05:36:46.270Z,26.38
2023-01-19T05:39:13.175Z,30.60
2023-01-19T05:41:40.378Z,27.00
2023-01-19T05:44:07.106Z,21.73
2023-01-19T05:46:34.895Z,27.20
2023-01-19T05:49:04.260Z,27.20
2023-01-19T05:51:35.162Z,29.52
2023-01-19T05:54:02.307Z,27.52
2023-01-19T05:56:29.392Z,26.70
2023-01-19T05:58:56.148Z,26.23
2023-01-19T06:01:23.008Z,30.55
2023-01-19T06:03:49.832Z,27.25
2023-01-19T06:06:17.187Z,29.60
2023-01-19T06:08:44.740Z,30.20
2023-01-19T06:11:12.240Z,27.75
2023-01-19T06:13:42.259Z,28.73
2023-01-19T06:16:09.701Z,30.63
2023-01-19T06:18:36.684Z,33.35
2023-01-19T06:21:05.746Z,30.07
2023-01-19T06:23:33.959Z,33.60
2023-01-19T06:26:01.090Z,31.33
2023-01-19T06:28:28.182Z,35.72
2023-01-19T06:30:56.190Z,35.55
2023-01-19T06:33:25.201Z,31.07
2023-01-19T06:35:52.279Z,31.42
2023-01-19T06:38:19.449Z,32.95
2023-01-19T06:40:53.324Z,34.17
2023-01-19T06:43:20.506Z,34.92
2023-01-19T06:45:47.925Z,35.27
2023-01-19T06:48:15.156Z,35.65
2023-01-19T06:50:42.172Z,36.53
2023-01-19T06:53:08.896Z,30.35
2023-01-19T06:55:36.520Z,36.38
2023-01-19T06:58:03.339Z,38.70
2023-01-19T07:00:30.570Z,38.30
2023-01-19T07:02:57.488Z,36.10
2023-01-19T07:05:24.524Z,36.53
2023-01-19T07:07:55.985Z,36.70
2023-01-19T07:10:24.670Z,36.60
2023-01-19T07:12:51.811Z,37.55
2023-01-19T07:15:19.857Z,37.10
2023-01-19T07:17:46.724Z,35.85
2023-01-19T07:20:14.618Z,34.67
2023-01-19T07:22:46.667Z,37.90
2023-01-19T07:25:14.788Z,37.97
2023-01-19T07:27:41.735Z,38.60
2023-01-19T07:30:09.350Z,35.55
2023-01-19T07:32:36.155Z,37.90
2023-01-19T07:35:03.239Z,39.27
2023-01-19T07:37:30.218Z,37.40
2023-01-19T07:39:57.104Z,37.58
2023-01-19T07:42:23.842Z,36.13
2023-01-19T07:44:51.134Z,40.88
2023-01-19T07:47:17.930Z,41.07
2023-01-19T07:49:44.790Z,29.38
2023-01-19T07:52:11.640Z,38.22
2023-01-19T07:54:38.539Z,37.92
2023-01-19T07:57:05.349Z,38.70
2023-01-19T07:59:32.398Z,38.13
2023-01-19T08:01:59.862Z,39.15
2023-01-19T08:04:28.082Z,39.65
2023-01-19T08:06:56.112Z,34.22
2023-01-19T08:09:23.935Z,36.70
2023-01-19T08:11:50.736Z,35.37
2023-01-19T08:14:18.140Z,33.30
2023-01-19T08:16:45.083Z,36.83
2023-01-19T08:19:11.865Z,31.40
2023-01-19T08:21:39.056Z,34.78
2023-01-19T08:24:06.210Z,36.40
2023-01-19T08:26:35.259Z,33.00
2023-01-19T08:29:04.961Z,35.92
2023-01-19T08:31:32.157Z,30.70
2023-01-19T08:33:59.123Z,33.42
2023-01-19T08:36:26.347Z,34.30
2023-01-19T08:38:53.217Z,32.10
2023-01-19T08:41:20.152Z,34.00
2023-01-19T08:43:46.968Z,29.73
2023-01-19T08:46:17.692Z,34.33
2023-01-19T08:48:53.538Z,28.65
2023-01-19T08:51:21.174Z,32.92
2023-01-19T08:53:48.289Z,30.77
2023-01-19T08:56:15.256Z,29.45
2023-01-19T08:58:46.710Z,31.90
2023-01-19T09:01:20.487Z,31.13
2023-01-19T09:03:47.593Z,30.80
2023-01-19T09:06:19.597Z,31.50
2023-01-19T09:08:47.509Z,31.80
2023-01-19T09:11:16.454Z,34.15
2023-01-19T09:13:43.831Z,34.03
2023-01-19T09:16:13.298Z,32.15
2023-01-19T09:18:40.293Z,28.95
2023-01-19T09:21:08.249Z,32.92
2023-01-19T09:23:34.984Z,28.00
2023-01-19T09:26:03.938Z,26.73
2023-01-19T09:28:30.799Z,28.92
2023-01-19T09:30:57.832Z,26.73
2023-01-19T09:33:24.781Z,28.80
2023-01-19T09:35:52.027Z,27.15
2023-01-19T09:38:19.784Z,24.90
2023-01-19T09:40:52.796Z,22.48
2023-01-19T09:43:19.513Z,23.08
2023-01-19T09:45:57.065Z,25.52
2023-01-19T09:48:26.719Z,20.40
2023-01-19T09:50:55.566Z,25.67
2023-01-19T09:53:35.307Z,23.88
2023-01-19T09:56:02.201Z,26.95
2023-01-19T09:58:29.052Z,28.15
2023-01-19T10:01:08.350Z,22.90
2023-01-19T10:03:41.076Z,22.50
2023-01-19T10:06:11.654Z,23.77
2023-01-19T10:08:51.621Z,25.50
2023-01-19T10:11:52.637Z,26.80
2023-01-19T10:14:36.674Z,24.75
2023-01-19T10:17:15.522Z,27.63
2023-01-19T10:19:47.653Z,20.05
2023-01-19T10:22:22.222Z,24.83
2023-01-19T10:25:00.588Z,23.08
2023-01-19T10:27:33.873Z,21.25
2023-01-19T10:30:01.915Z,25.80
2023-01-19T10:32:35.970Z,25.35
2023-01-19T10:35:21.928Z,24.42
2023-01-19T10:37:49.368Z,25.38
2023-01-19T10:40:27.157Z,20.42
2023-01-19T10:42:54.360Z,25.27
2023-01-19T10:45:29.468Z,20.83
2023-01-19T10:47:59.822Z,20.10
2023-01-19T10:50:32.538Z,24.77
2023-01-19T10:53:02.092Z,28.33
2023-01-19T10:55:38.279Z,23.47
2023-01-19T10:58:07.002Z,24.23
2023-01-19T11:00:42.990Z,24.35
2023-01-19T11:03:29.778Z,25.45
2023-01-19T11:06:18.668Z,31.23
2023-01-19T11:08:47.276Z,27.83
2023-01-19T11:11:14.407Z,28.02
2023-01-19T11:13:42.754Z,29.25
2023-01-19T11:16:22.970Z,26.20
2023-01-19T11:18:53.379Z,25.10
2023-01-19T11:21:26.006Z,29.07
2023-01-19T11:23:55.829Z,27.13
2023-01-19T11:26:50.332Z,26.48
2023-01-19T11:29:27.360Z,27.13
2023-01-19T11:31:57.601Z,25.80
2023-01-19T11:34:32.642Z,20.87
2023-01-19T11:37:03.884Z,22.60
2023-01-19T11:39:32.726Z,19.30
2023-01-19T11:42:02.306Z,25.50
2023-01-19T11:44:45.985Z,23.80
2023-01-19T11:47:18.674Z,24.50
2023-01-19T11:50:06.741Z,24.92
2023-01-19T11:52:33.440Z,20.42
2023-01-19T11:55:17.551Z,20.77
2023-01-19T11:57:49.956Z,22.83
2023-01-19T12:00:43.629Z,23.93
2023-01-19T12:03:23.348Z,14.65
2023-01-19T12:05:56.933Z,21.17
2023-01-19T12:08:30.538Z,18.50
2023-01-19T12:11:00.621Z,19.33
2023-01-19T12:13:27.891Z,20.77
2023-01-19T12:16:17.818Z,22.30
2023-01-19T12:19:05.289Z,18.80
2023-01-19T12:21:32.048Z,17.00
2023-01-19T12:24:10.523Z,18.77
2023-01-19T12:26:46.299Z,20.77
2023-01-19T12:29:18.705Z,21.35
2023-01-19T12:31:45.583Z,20.38
2023-01-19T12:34:38.953Z,18.95
2023-01-19T12:37:08.163Z,24.42
2023-01-19T12:39:35.473Z,23.70
2023-01-19T12:42:29.189Z,20.35
2023-01-19T12:45:08.766Z,21.42
2023-01-19T12:47:36.725Z,18.45
2023-01-19T12:50:16.849Z,16.92
2023-01-19T12:52:58.415Z,19.30
2023-01-19T12:55:58.445Z,19.10
2023-01-19T12:58:25.731Z,25.27
2023-01-19T13:01:14.587Z,21.83
2023-01-19T13:03:44.471Z,19.10
2023-01-19T13:06:11.325Z,19.60
2023-01-19T13:08:59.696Z,18.23
2023-01-19T13:11:29.389Z,17.08
2023-01-19T13:13:58.154Z,18.45
2023-01-19T13:16:27.949Z,18.80
2023-01-19T13:18:57.693Z,17.97
2023-01-19T13:21:31.219Z,16.88
2023-01-19T13:24:03.221Z,18.70
2023-01-19T13:26:35.274Z,18.42
2023-01-19T13:29:16.900Z,15.55
2023-01-19T13:31:45.864Z,17.07
2023-01-19T13:34:14.916Z,19.35
2023-01-19T13:36:47.001Z,16.38
2023-01-19T13:39:44.497Z,17.25
2023-01-19T13:42:17.943Z,14.50
2023-01-19T13:44:53.795Z,15.70
2023-01-19T13:47:28.653Z,15.90
2023-01-19T13:49:59.080Z,16.58
2023-01-19T13:52:28.716Z,19.60
2023-01-19T13:55:02.872Z,17.73
2023-01-19T13:57:30.307Z,16.70
2023-01-19T14:00:12.597Z,19.10
2023-01-19T14:02:54.846Z,18.63
2023-01-19T14:05:24.887Z,17.73
2023-01-19T14:08:01.551Z,17.50
2023-01-19T14:10:28.716Z,17.90
2023-01-19T14:13:00.216Z,17.08
2023-01-19T14:15:28.591Z,18.65
2023-01-19T14:18:11.660Z,17.48
2023-01-19T14:20:39.022Z,17.17
2023-01-19T14:23:27.281Z,17.07
2023-01-19T14:25:54.101Z,17.52
2023-01-19T14:28:43.447Z,17.33
2023-01-19T14:31:25.001Z,19.40
2023-01-19T14:33:54.274Z,20.98
2023-01-19T14:36:39.363Z,18.37
2023-01-19T14:39:16.656Z,19.20
2023-01-19T14:41:52.735Z,18.33
2023-01-19T14:44:29.509Z,19.67
2023-01-19T14:46:58.125Z,19.33
2023-01-19T14:49:47.441Z,18.93
2023-01-19T14:52:37.960Z,21.50
2023-01-19T14:55:08.231Z,20.88
2023-01-19T14:57:36.680Z,19.38
2023-01-19T15:00:17.255Z,21.35
2023-01-19T15:02:45.868Z,18.87
2023-01-19T15:05:13.486Z,19.20
2023-01-19T15:07:43.512Z,21.60
2023-01-19T15:10:36.693Z,18.75
2023-01-19T15:13:04.878Z,19.95
2023-01-19T15:15:33.932Z,20.07
2023-01-19T15:18:04.026Z,18.08
2023-01-19T15:20:30.897Z,20.02
2023-01-19T15:22:57.721Z,18.65
2023-01-19T15:25:28.030Z,17.63
2023-01-19T15:27:59.022Z,21.53
2023-01-19T15:30:30.931Z,20.85
2023-01-19T15:32:58.962Z,19.58
2023-01-19T15:35:28.574Z,20.92
2023-01-19T15:37:55.341Z,23.15
2023-01-19T15:40:23.308Z,30.97
2023-01-19T15:42:50.898Z,39.55
2023-01-19T15:45:38.218Z,28.48
2023-01-19T15:48:07.550Z,24.35
2023-01-19T15:50:37.525Z,22.20
2023-01-19T15:53:04.713Z,19.17
2023-01-19T15:55:31.507Z,20.40
2023-01-19T15:58:01.557Z,18.13
2023-01-19T16:00:30.300Z,21.42
2023-01-19T16:02:57.920Z,21.42
2023-01-19T16:05:37.442Z,20.97
2023-01-19T16:08:09.460Z,20.45
2023-01-19T16:10:37.281Z,19.45
2023-01-19T16:13:04.426Z,18.20
2023-01-19T16:15:31.232Z,18.88
2023-01-19T16:17:58.468Z,15.90
2023-01-19T16:20:25.381Z,16.80
2023-01-19T16:22:52.872Z,17.02
2023-01-19T16:25:21.111Z,20.02
2023-01-19T16:27:48.798Z,21.27
2023-01-19T16:30:19.169Z,18.53
2023-01-19T16:32:46.647Z,17.95
2023-01-19T16:35:15.564Z,18.38
2023-01-19T16:37:42.440Z,19.55
2023-01-19T16:40:09.975Z,19.95
2023-01-19T16:42:36.769Z,15.77
2023-01-19T16:45:03.636Z,19.52
2023-01-19T16:47:30.401Z,20.35
2023-01-19T16:49:57.181Z,15.35
2023-01-19T16:52:23.913Z,19.15
2023-01-19T16:54:54.600Z,15.27
2023-01-19T16:57:21.503Z,15.38
2023-01-19T16:59:48.375Z,18.00
2023-01-19T17:02:15.034Z,16.83
2023-01-19T17:04:41.988Z,16.00
2023-01-19T17:07:08.877Z,18.13
2023-01-19T17:09:36.294Z,16.08
2023-01-19T17:12:04.147Z,15.10
2023-01-19T17:14:31.376Z,17.50
2023-01-19T17:16:59.756Z,17.05
2023-01-19T17:19:28.056Z,20.87
2023-01-19T17:21:55.148Z,17.00
2023-01-19T17:24:22.456Z,19.35
2023-01-19T17:26:50.160Z,14.77
2023-01-19T17:29:17.425Z,15.73
2023-01-19T17:31:45.861Z,13.30
2023-01-19T17:34:13.102Z,17.08
2023-01-19T17:36:41.649Z,17.73
2023-01-19T17:39:14.481Z,15.20
2023-01-19T17:41:42.288Z,18.42
2023-01-19T17:44:09.673Z,17.57
2023-01-19T17:46:38.310Z,14.65
2023-01-19T17:49:07.794Z,15.23
2023-01-19T17:51:36.659Z,12.88
2023-01-19T17:54:05.261Z,14.23
2023-01-19T17:56:37.183Z,17.60
2023-01-19T17:59:06.630Z,16.05
2023-01-19T18:01:37.029Z,14.40
2023-01-19T18:04:04.609Z,15.65
2023-01-19T18:06:32.132Z,16.70
2023-01-19T18:08:59.600Z,17.87
2023-01-19T18:11:26.822Z,17.63
2023-01-19T18:13:54.477Z,20.73
2023-01-19T18:16:24.401Z,22.60
2023-01-19T18:18:54.107Z,25.23
2023-01-19T18:21:23.133Z,25.13
2023-01-19T18:23:51.688Z,25.92
2023-01-19T18:26:22.718Z,28.52
2023-01-19T18:28:50.115Z,28.30
2023-01-19T18:31:19.026Z,32.78
2023-01-19T18:33:48.126Z,28.47
2023-01-19T18:36:16.052Z,23.75
2023-01-19T18:38:43.513Z,18.13
2023-01-19T18:41:16.743Z,20.13
2023-01-19T18:43:43.832Z,19.15
2023-01-19T18:46:11.548Z,18.50
2023-01-19T18:48:39.760Z,25.75
2023-01-19T18:51:09.178Z,20.00
2023-01-19T18:53:37.009Z,22.30
2023-01-19T18:56:05.312Z,19.13
2023-01-19T18:58:37.109Z,16.23
2023-01-19T19:01:04.514Z,21.10
2023-01-19T19:03:31.527Z,23.02
2023-01-19T19:06:02.680Z,26.80
2023-01-19T19:08:29.753Z,24.13
2023-01-19T19:10:56.568Z,22.07
2023-01-19T19:13:23.698Z,22.80
2023-01-19T19:15:52.561Z,20.02
2023-01-19T19:18:19.713Z,28.70
2023-01-19T19:20:46.500Z,25.85
2023-01-19T19:23:13.284Z,28.10
2023-01-19T19:25:40.070Z,19.08
2023-01-19T19:28:07.074Z,14.63
2023-01-19T19:30:35.649Z,20.67
2023-01-19T19:33:02.862Z,21.38
2023-01-19T19:35:29.739Z,19.80
2023-01-19T19:37:57.858Z,18.80
2023-01-19T19:40:26.041Z,17.00
2023-01-19T19:42:52.971Z,16.95
2023-01-19T19:45:20.075Z,18.25
2023-01-19T19:47:47.834Z,18.20
2023-01-19T19:50:14.972Z,14.23
2023-01-19T19:52:42.455Z,14.15
2023-01-19T19:55:10.750Z,13.52
2023-01-19T19:57:37.795Z,14.13
2023-01-19T20:00:05.539Z,13.27
2023-01-19T20:02:36.608Z,20.10
2023-01-19T20:05:04.449Z,18.70
2023-01-19T20:07:31.414Z,22.00
2023-01-19T20:09:58.361Z,22.30
2023-01-19T20:12:25.268Z,29.67
2023-01-19T20:14:52.012Z,18.77
2023-01-19T20:17:19.288Z,16.30
2023-01-19T20:19:47.654Z,15.18
2023-01-19T20:22:14.996Z,16.80
2023-01-19T20:24:41.740Z,18.53
2023-01-19T20:27:08.490Z,23.33
2023-01-19T20:29:35.270Z,26.33
2023-01-19T20:32:02.196Z,13.50
2023-01-19T20:34:33.331Z,15.38
2023-01-19T20:37:01.670Z,15.57
2023-01-19T20:39:33.200Z,16.92
2023-01-19T20:42:00.457Z,15.70
2023-01-19T20:44:27.393Z,13.32
2023-01-19T20:46:55.504Z,13.57
2023-01-19T20:49:22.550Z,16.13
2023-01-19T20:51:51.225Z,14.18
2023-01-19T20:54:20.373Z,13.40
2023-01-19T20:56:47.196Z,13.77
2023-01-19T20:59:14.089Z,11.20
2023-01-19T21:01:41.800Z,11.23
2023-01-19T21:04:09.430Z,8.35
2023-01-19T21:06:36.636Z,10.52
2023-01-19T21:09:03.833Z,9.68
2023-01-19T21:11:30.937Z,15.30
2023-01-19T21:13:57.772Z,14.03
2023-01-19T21:16:30.944Z,12.25
2023-01-19T21:18:57.800Z,12.93
2023-01-19T21:21:30.683Z,11.52
2023-01-19T21:23:59.788Z,10.13
2023-01-19T21:26:29.662Z,10.37
2023-01-19T21:28:58.249Z,10.43
2023-01-19T21:31:27.524Z,14.00
2023-01-19T21:33:55.698Z,14.57
2023-01-19T21:36:23.239Z,15.02
2023-01-19T21:38:51.541Z,19.23
2023-01-19T21:41:18.672Z,23.67
2023-01-19T21:43:46.144Z,29.25
2023-01-19T21:46:14.873Z,22.95
2023-01-19T21:48:42.469Z,23.85
2023-01-19T21:51:09.690Z,25.27
2023-01-19T21:53:36.512Z,20.13
2023-01-19T21:56:06.489Z,18.83
2023-01-19T21:58:33.311Z,14.85
2023-01-19T22:01:06.690Z,17.77
2023-01-19T22:03:33.584Z,13.63
2023-01-19T22:06:09.065Z,12.30
2023-01-19T22:08:36.915Z,12.60
2023-01-19T22:11:14.716Z,14.50
2023-01-19T22:13:41.741Z,10.32
2023-01-19T22:16:12.047Z,10.33
2023-01-19T22:18:41.218Z,8.85
2023-01-19T22:21:16.429Z,8.40
2023-01-19T22:23:43.997Z,9.55
2023-01-19T22:26:11.838Z,8.10
2023-01-19T22:28:38.931Z,7.83
2023-01-19T22:31:17.011Z,8.68
2023-01-19T22:33:44.337Z,11.35
2023-01-19T22:36:11.100Z,7.97
2023-01-19T22:38:39.983Z,12.07
2023-01-19T22:41:14.887Z,11.83
2023-01-19T22:43:41.798Z,11.40
2023-01-19T22:46:08.955Z,13.73
2023-01-19T22:48:36.174Z,10.13
2023-01-19T22:51:03.204Z,10.73
2023-01-19T22:53:33.482Z,13.70
2023-01-19T22:56:00.294Z,11.43
2023-01-19T22:58:27.083Z,9.85
2023-01-19T23:00:53.890Z,9.15
2023-01-19T23:03:20.692Z,10.70
2023-01-19T23:05:47.470Z,9.60
2023-01-19T23:08:14.352Z,9.82
2023-01-19T23:10:41.147Z,11.57
2023-01-19T23:13:07.901Z,13.15
2023-01-19T23:15:35.004Z,14.13
2023-01-19T23:18:01.840Z,16.50
2023-01-19T23:20:28.568Z,11.77
2023-01-19T23:22:55.317Z,13.55
2023-01-19T23:25:22.039Z,12.35
2023-01-19T23:27:48.765Z,11.48
2023-01-19T23:30:15.742Z,13.47
2023-01-19T23:32:47.114Z,11.30
2023-01-19T23:35:14.656Z,8.90
2023-01-19T23:37:41.893Z,9.25
2023-01-19T23:40:11.631Z,9.45
2023-01-19T23:42:38.401Z,11.20
2023-01-19T23:45:05.839Z,11.35
2023-01-19T23:47:34.908Z,12.07
2023-01-19T23:50:05.310Z,12.07
2023-01-19T23:52:32.047Z,9.93
2023-01-19T23:54:58.823Z,9.80
2023-01-19T23:57:25.597Z,10.48
2023-01-19T23:59:52.421Z,12.30
